Time;durP1;ratioP1;P1;durP2;ratioP2;P2;SDS_P1;SDS_P2;PMS_P1;PMS_P2;Temp;Humidity;BMP_temperature;BMP_pressure;BME280_temperature;BME280_humidity;BME280_pressure;Samples;Min_cycle;Max_cycle;Signal;HPM_P1;HPM_P2
2022/11/29 00:01:35;;;;;;;48.15;15.80;;;8.90;99.90;;;;;;5108995;28;20053;-72
2022/11/29 00:04:02;;;;;;;51.72;17.08;;;8.90;99.90;;;;;;5112164;28;20023;-73
2022/11/29 00:06:30;;;;;;;58.20;17.42;;;8.90;99.90;;;;;;5094030;28;20375;-73
2022/11/29 00:08:57;;;;;;;54.10;15.55;;;8.90;99.90;;;;;;5093777;28;20013;-72
2022/11/29 00:14:16;;;;;;;50.30;14.88;;;9.00;99.90;;;;;;5092542;28;20125;-73
2022/11/29 00:16:41;;;;;;;45.20;14.75;;;9.00;99.90;;;;;;5089353;28;20048;-74
2022/11/29 00:19:08;;;;;;;41.67;13.75;;;9.00;99.90;;;;;;5106833;28;20046;-70
2022/11/29 00:21:34;;;;;;;43.33;14.45;;;9.00;99.90;;;;;;5091204;28;20135;-73
2022/11/29 00:24:00;;;;;;;37.72;12.15;;;9.10;99.90;;;;;;5090808;28;20028;-72
2022/11/29 00:26:25;;;;;;;42.10;14.02;;;9.10;99.90;;;;;;5106973;28;20012;-72
2022/11/29 00:28:51;;;;;;;41.80;13.85;;;9.10;99.90;;;;;;5091411;28;20589;-73
2022/11/29 00:31:18;;;;;;;43.42;14.15;;;9.10;99.90;;;;;;5106688;28;20055;-73
2022/11/29 00:33:44;;;;;;;52.97;15.77;;;9.10;99.90;;;;;;5106693;28;20081;-73
2022/11/29 00:36:10;;;;;;;42.47;16.02;;;9.10;99.90;;;;;;5091665;28;20023;-73
2022/11/29 00:38:36;;;;;;;49.95;16.25;;;9.10;99.90;;;;;;5090248;28;20032;-72
2022/11/29 00:41:02;;;;;;;48.45;14.45;;;9.10;99.90;;;;;;5091173;28;20051;-71
2022/11/29 00:43:27;;;;;;;44.17;15.38;;;9.10;99.90;;;;;;5090234;28;20437;-72
2022/11/29 00:45:53;;;;;;;50.20;14.82;;;9.10;99.90;;;;;;5091115;28;20035;-72
2022/11/29 00:48:18;;;;;;;43.70;15.32;;;9.10;99.90;;;;;;5091369;28;20024;-71
2022/11/29 00:50:44;;;;;;;49.92;16.40;;;9.10;99.90;;;;;;5090104;28;20536;-72
2022/11/29 00:53:10;;;;;;;43.88;15.07;;;9.10;99.90;;;;;;5091612;28;20478;-72
2022/11/29 00:55:35;;;;;;;40.72;15.18;;;9.10;99.90;;;;;;5091158;28;20369;-71
2022/11/29 00:58:01;;;;;;;42.28;14.85;;;9.20;99.90;;;;;;5090757;28;20066;-71
2022/11/29 01:00:26;;;;;;;46.30;15.18;;;9.20;99.90;;;;;;5091299;28;20452;-71
2022/11/29 01:02:52;;;;;;;42.72;14.30;;;9.20;99.90;;;;;;5095078;28;20031;-72
2022/11/29 01:05:18;;;;;;;47.35;14.65;;;9.20;99.90;;;;;;5094635;28;20039;-71
2022/11/29 01:07:43;;;;;;;49.75;16.70;;;9.20;99.90;;;;;;5095199;28;20107;-71
2022/11/29 01:10:09;;;;;;;47.30;15.52;;;9.20;99.90;;;;;;5095225;28;20471;-71
2022/11/29 01:12:36;;;;;;;47.75;15.98;;;9.20;99.90;;;;;;5094209;28;20103;-70
2022/11/29 01:15:04;;;;;;;46.03;14.32;;;9.10;99.90;;;;;;5095082;28;20065;-72
2022/11/29 01:17:30;;;;;;;39.60;13.00;;;9.10;99.90;;;;;;5110368;28;20135;-72
2022/11/29 01:19:56;;;;;;;45.20;14.40;;;9.10;99.90;;;;;;5094576;28;20091;-72
2022/11/29 01:22:22;;;;;;;37.33;12.13;;;9.10;99.90;;;;;;5094937;28;20101;-70
2022/11/29 01:24:48;;;;;;;47.10;15.77;;;9.10;99.90;;;;;;5076683;28;20070;-72
2022/11/29 01:27:13;;;;;;;44.13;13.40;;;9.10;99.90;;;;;;5094097;28;20693;-72
2022/11/29 01:29:39;;;;;;;49.35;13.88;;;9.10;99.90;;;;;;5094181;28;20020;-71
2022/11/29 01:32:04;;;;;;;46.08;12.85;;;9.10;99.90;;;;;;5094560;28;20383;-72
2022/11/29 01:34:30;;;;;;;45.60;14.77;;;9.10;99.90;;;;;;5093841;28;20028;-72
2022/11/29 01:36:55;;;;;;;42.28;13.45;;;9.10;99.90;;;;;;5094978;28;20369;-72
2022/11/29 01:39:21;;;;;;;48.20;14.45;;;9.10;99.90;;;;;;5094511;28;20032;-72
2022/11/29 01:41:47;;;;;;;45.55;14.88;;;9.10;99.90;;;;;;5093678;28;20032;-72
2022/11/29 01:44:12;;;;;;;53.85;15.38;;;9.00;99.90;;;;;;5094572;28;20020;-72
2022/11/29 01:46:44;;;;;;;55.67;16.02;;;9.00;99.90;;;;;;5093614;28;20028;-72
2022/11/29 01:49:26;;;;;;;47.70;13.98;;;9.00;99.90;;;;;;5092302;28;20028;-72
2022/11/29 01:51:58;;;;;;;38.42;12.65;;;8.90;99.90;;;;;;5093889;28;20036;-73
2022/11/29 01:54:25;;;;;;;41.92;14.70;;;9.00;99.90;;;;;;5093245;28;20494;-70
2022/11/29 01:56:51;;;;;;;45.63;13.10;;;9.00;99.90;;;;;;5096292;28;20028;-73
2022/11/29 01:59:23;;;;;;;46.22;14.82;;;9.00;99.90;;;;;;5115002;28;20045;-73
2022/11/29 02:01:50;;;;;;;47.25;14.23;;;9.00;99.90;;;;;;5112997;28;20100;-72
2022/11/29 02:04:17;;;;;;;49.60;15.55;;;9.00;99.90;;;;;;5114523;28;20450;-73
2022/11/29 02:06:43;;;;;;;38.97;14.07;;;8.90;99.90;;;;;;5111886;28;20089;-69
2022/11/29 02:09:20;;;;;;;44.33;13.18;;;8.90;99.90;;;;;;5114093;28;20467;-72
2022/11/29 02:11:59;;;;;;;37.22;13.48;;;8.80;99.90;;;;;;5095548;28;20028;-73
2022/11/29 02:14:41;;;;;;;37.38;13.18;;;8.80;99.90;;;;;;5110843;28;20069;-72
2022/11/29 02:17:37;;;;;;;44.67;14.00;;;8.80;99.90;;;;;;5103922;28;20048;-72
2022/11/29 02:20:27;;;;;;;52.35;15.48;;;8.70;99.90;;;;;;5113611;28;20031;-73
2022/11/29 02:23:34;;;;;;;51.30;15.18;;;8.70;99.90;;;;;;5099294;28;20107;-72
2022/11/29 02:26:37;;;;;;;42.83;14.18;;;8.70;99.90;;;;;;5087033;28;20032;-73
2022/11/29 02:29:27;;;;;;;49.65;15.63;;;8.80;99.90;;;;;;5054619;28;20032;-73
2022/11/29 02:32:14;;;;;;;51.50;14.77;;;8.80;99.90;;;;;;5085288;28;20020;-70
2022/11/29 02:34:51;;;;;;;60.90;17.20;;;8.80;99.90;;;;;;5072442;28;20049;-73
2022/11/29 02:37:31;;;;;;;47.22;13.75;;;8.80;99.90;;;;;;5072393;28;20016;-73
2022/11/29 02:40:12;;;;;;;49.22;14.43;;;8.80;99.90;;;;;;5072763;28;20094;-72
2022/11/29 02:42:49;;;;;;;53.95;13.85;;;8.70;99.90;;;;;;5117486;27;20027;-73
2022/11/29 02:45:31;;;;;;;43.25;12.55;;;8.80;99.90;;;;;;5094669;28;20024;-72
2022/11/29 02:48:31;;;;;;;42.30;13.52;;;8.80;99.90;;;;;;5113180;28;20110;-73
2022/11/29 02:51:39;;;;;;;49.88;15.65;;;8.80;99.90;;;;;;5037933;28;20032;-73
2022/11/29 02:54:50;;;;;;;56.63;16.30;;;8.80;99.90;;;;;;5092127;28;20036;-73
2022/11/29 02:57:24;;;;;;;48.60;15.57;;;8.80;99.90;;;;;;5087620;28;20059;-73
2022/11/29 03:00:00;;;;;;;54.28;15.75;;;8.70;99.90;;;;;;5113097;28;20406;-73
2022/11/29 03:02:47;;;;;;;47.53;13.90;;;8.70;99.90;;;;;;5106952;28;20151;-72
2022/11/29 03:05:25;;;;;;;46.15;15.07;;;8.70;99.90;;;;;;5112537;28;20049;-72
2022/11/29 03:07:59;;;;;;;52.40;15.77;;;8.80;99.90;;;;;;5113077;28;20028;-72
2022/11/29 03:10:48;;;;;;;52.70;15.73;;;8.80;99.90;;;;;;5112642;28;20031;-73
2022/11/29 03:13:29;;;;;;;56.78;14.20;;;8.70;99.90;;;;;;5071913;28;20032;-72
2022/11/29 03:16:03;;;;;;;54.92;16.92;;;8.70;99.90;;;;;;5072292;28;20030;-72
2022/11/29 03:19:22;;;;;;;50.80;14.70;;;8.70;99.90;;;;;;5053131;28;20053;-73
2022/11/29 03:22:11;;;;;;;48.83;14.15;;;8.70;99.90;;;;;;4993361;28;20065;-73
2022/11/29 03:24:46;;;;;;;47.15;13.77;;;8.70;99.90;;;;;;5097617;28;20043;-72
2022/11/29 03:27:20;;;;;;;57.40;15.43;;;8.70;99.90;;;;;;5092551;28;20038;-74
2022/11/29 03:30:01;;;;;;;57.72;16.08;;;8.70;99.90;;;;;;5093827;28;20073;-72
2022/11/29 03:32:50;;;;;;;50.30;14.55;;;8.70;99.90;;;;;;5107878;28;20028;-72
2022/11/29 03:35:37;;;;;;;54.05;14.63;;;8.70;99.90;;;;;;5093736;28;20032;-71
2022/11/29 03:38:21;;;;;;;57.05;16.33;;;8.80;99.90;;;;;;5112452;28;20027;-72
2022/11/29 03:41:09;;;;;;;56.75;16.05;;;8.70;99.90;;;;;;5093280;28;20031;-72
2022/11/29 03:44:01;;;;;;;66.80;18.38;;;8.80;99.90;;;;;;5089874;28;20020;-72
2022/11/29 03:46:42;;;;;;;67.25;18.50;;;8.80;99.90;;;;;;5111382;28;20027;-71
2022/11/29 03:49:22;;;;;;;58.05;16.75;;;8.80;99.90;;;;;;5112533;28;20035;-71
2022/11/29 03:51:59;;;;;;;54.88;16.35;;;8.80;99.90;;;;;;5107976;28;20055;-72
2022/11/29 03:54:50;;;;;;;56.90;15.90;;;8.80;99.90;;;;;;5092818;28;20027;-71
2022/11/29 03:57:25;;;;;;;53.95;15.15;;;8.90;99.90;;;;;;5103912;28;20105;-72
2022/11/29 04:00:03;;;;;;;48.80;15.05;;;8.80;99.90;;;;;;5111019;28;20111;-71
2022/11/29 04:02:37;;;;;;;42.70;13.23;;;8.90;99.90;;;;;;5099754;28;20161;-72
2022/11/29 04:05:19;;;;;;;54.78;14.65;;;8.90;99.90;;;;;;5073703;28;20024;-72
2022/11/29 04:08:06;;;;;;;52.28;16.45;;;8.90;99.90;;;;;;5090788;28;20020;-72
2022/11/29 04:11:09;;;;;;;49.53;14.40;;;8.90;99.90;;;;;;5091272;28;20032;-73
2022/11/29 04:14:00;;;;;;;50.33;15.25;;;8.90;99.90;;;;;;5091063;28;20395;-72
2022/11/29 04:16:34;;;;;;;47.25;13.55;;;9.00;99.90;;;;;;5109385;28;20077;-72
2022/11/29 04:19:14;;;;;;;39.90;12.88;;;8.90;99.90;;;;;;5090480;28;20035;-70
2022/11/29 04:22:15;;;;;;;46.13;14.63;;;9.00;99.90;;;;;;5088467;28;20039;-72
2022/11/29 04:24:46;;;;;;;50.38;15.05;;;9.00;99.90;;;;;;5089388;28;20036;-72
2022/11/29 04:27:14;;;;;;;;;;;9.00;99.90;;;;;;5074524;28;20047;-72
2022/11/29 04:29:59;;;;;;;46.22;14.68;;;9.00;99.90;;;;;;5072092;28;19904;-72
2022/11/29 04:32:44;;;;;;;50.50;13.73;;;9.00;99.90;;;;;;5090444;28;20418;-71
2022/11/29 04:35:24;;;;;;;54.53;15.88;;;9.00;99.90;;;;;;5090870;28;20107;-73
2022/11/29 04:38:27;;;;;;;54.92;16.38;;;9.00;99.90;;;;;;5073031;28;20428;-72
2022/11/29 04:41:18;;;;;;;47.05;14.77;;;9.00;99.90;;;;;;5073058;28;20115;-72
2022/11/29 04:43:53;;;;;;;52.78;15.68;;;8.90;99.90;;;;;;5105763;28;20107;-72
2022/11/29 04:46:56;;;;;;;55.67;15.55;;;8.90;99.90;;;;;;5072790;28;20064;-70
2022/11/29 04:49:50;;;;;;;61.40;16.65;;;8.90;99.90;;;;;;5091047;28;20456;-71
2022/11/29 04:52:43;;;;;;;61.08;17.30;;;8.90;99.90;;;;;;5091105;28;20468;-69
2022/11/29 04:55:27;;;;;;;60.08;15.52;;;8.90;99.90;;;;;;5097735;28;20035;-71
2022/11/29 04:58:23;;;;;;;49.53;15.85;;;8.80;99.90;;;;;;5111068;28;20016;-72
2022/11/29 05:01:25;;;;;;;49.17;14.20;;;8.80;99.90;;;;;;5111451;28;20028;-72
2022/11/29 05:04:15;;;;;;;55.72;15.63;;;8.80;99.90;;;;;;5090563;28;20019;-73
2022/11/29 05:07:07;;;;;;;61.10;16.83;;;8.90;99.90;;;;;;5111187;28;20077;-71
2022/11/29 05:09:50;;;;;;;60.90;16.23;;;8.90;99.90;;;;;;5090145;28;20518;-72
2022/11/29 05:12:40;;;;;;;59.63;16.58;;;8.90;99.90;;;;;;5090396;28;20464;-73
2022/11/29 05:15:26;;;;;;;58.65;16.27;;;8.90;99.90;;;;;;5106929;28;20424;-73
2022/11/29 05:18:15;;;;;;;64.28;18.45;;;8.90;99.90;;;;;;5071931;28;20047;-71
2022/11/29 05:21:05;;;;;;;61.58;16.88;;;8.90;99.90;;;;;;5066069;28;20547;-72
2022/11/29 05:23:52;;;;;;;57.38;16.17;;;8.90;99.90;;;;;;5096357;28;20076;-72
2022/11/29 05:26:25;;;;;;;56.65;15.35;;;8.80;99.90;;;;;;5102815;28;20085;-73
2022/11/29 05:29:02;;;;;;;60.08;15.30;;;8.90;99.90;;;;;;5079883;28;20024;-72
2022/11/29 05:32:19;;;;;;;58.17;16.35;;;8.90;99.90;;;;;;5072284;28;20483;-73
2022/11/29 05:35:09;;;;;;;42.05;13.60;;;8.90;99.90;;;;;;5008375;28;20069;-72
2022/11/29 05:38:25;;;;;;;47.95;14.30;;;8.90;99.90;;;;;;5070279;28;20021;-73
2022/11/29 05:41:12;;;;;;;53.38;14.57;;;8.90;99.90;;;;;;5035730;28;20396;-73
2022/11/29 05:43:47;;;;;;;58.65;15.27;;;8.90;99.90;;;;;;5070233;28;20468;-73
2022/11/29 05:46:38;;;;;;;49.90;14.40;;;8.80;99.90;;;;;;5088600;28;20060;-73
2022/11/29 05:49:27;;;;;;;49.83;14.27;;;8.80;99.90;;;;;;5093535;28;20028;-72
2022/11/29 05:52:03;;;;;;;57.38;15.48;;;8.80;99.90;;;;;;5094284;28;20455;-73
2022/11/29 05:54:43;;;;;;;45.97;13.27;;;8.80;99.90;;;;;;5093306;28;20514;-73
2022/11/29 05:57:29;;;;;;;46.55;13.27;;;8.80;99.90;;;;;;5076582;28;20028;-73
2022/11/29 05:59:57;;;;;;;52.63;14.25;;;8.80;99.90;;;;;;5093499;28;20105;-73
2022/11/29 06:02:26;;;;;;;52.00;14.43;;;8.80;99.90;;;;;;5093842;28;20016;-72
2022/11/29 06:05:02;;;;;;;56.45;15.38;;;8.90;99.90;;;;;;5093934;28;20098;-73
2022/11/29 06:07:44;;;;;;;57.85;17.02;;;8.90;99.90;;;;;;5093187;28;20476;-74
2022/11/29 06:10:11;;;;;;;60.80;16.35;;;8.80;99.90;;;;;;5093982;28;20018;-74
2022/11/29 06:12:37;;;;;;;55.03;14.60;;;8.80;99.90;;;;;;5087185;28;20059;-73
2022/11/29 06:15:36;;;;;;;50.72;14.27;;;8.70;99.90;;;;;;5093143;28;20016;-75
2022/11/29 06:18:29;;;;;;;58.30;16.30;;;8.70;99.90;;;;;;5071872;28;20055;-74
2022/11/29 06:21:16;;;;;;;51.55;15.02;;;8.60;99.90;;;;;;5072918;28;20203;-72
2022/11/29 06:23:54;;;;;;;46.70;13.63;;;8.60;99.90;;;;;;5071630;28;20055;-73
2022/11/29 06:26:28;;;;;;;40.60;12.55;;;8.50;99.90;;;;;;5073463;28;20024;-73
2022/11/29 06:28:56;;;;;;;49.03;12.65;;;8.50;99.90;;;;;;5065190;28;20029;-74
2022/11/29 06:31:41;;;;;;;43.85;14.18;;;8.60;99.90;;;;;;5052794;28;20523;-73
2022/11/29 06:34:23;;;;;;;49.80;14.20;;;8.60;99.90;;;;;;5050790;28;20389;-74
2022/11/29 06:37:30;;;;;;;53.42;16.02;;;8.60;99.90;;;;;;5052537;28;20496;-74
2022/11/29 06:39:56;;;;;;;56.55;15.10;;;8.60;99.90;;;;;;5049742;28;20036;-74
2022/11/29 06:42:21;;;;;;;47.15;13.82;;;8.60;99.90;;;;;;5052014;28;20028;-71
2022/11/29 06:44:47;;;;;;;56.67;14.25;;;8.60;99.90;;;;;;5053290;28;20078;-71
2022/11/29 06:47:33;;;;;;;43.53;14.43;;;8.60;99.90;;;;;;5073007;28;20031;-73
2022/11/29 06:50:36;;;;;;;41.58;13.45;;;8.60;99.90;;;;;;5059158;28;20051;-72
2022/11/29 06:53:23;;;;;;;39.25;10.82;;;8.60;99.90;;;;;;5052035;28;20041;-73
2022/11/29 06:55:55;;;;;;;38.38;11.60;;;8.60;99.90;;;;;;5052276;28;20036;-73
2022/11/29 06:58:56;;;;;;;40.05;12.15;;;8.60;99.90;;;;;;5051132;28;20040;-73
2022/11/29 07:01:27;;;;;;;42.08;11.50;;;8.60;99.90;;;;;;5044732;28;20032;-71
2022/11/29 07:04:10;;;;;;;40.38;12.52;;;8.70;99.90;;;;;;5070997;28;20480;-73
2022/11/29 07:06:37;;;;;;;44.03;12.35;;;8.70;99.90;;;;;;5066339;28;20032;-69
2022/11/29 07:09:10;;;;;;;33.17;10.25;;;8.60;99.90;;;;;;5061412;28;20062;-69
2022/11/29 07:11:36;;;;;;;36.72;11.05;;;8.60;99.90;;;;;;5072776;28;20029;-69
2022/11/29 07:14:02;;;;;;;40.10;11.60;;;8.70;99.90;;;;;;5057955;28;20415;-69
2022/11/29 07:16:40;;;;;;;36.13;11.25;;;8.70;99.90;;;;;;5056192;28;20027;-69
2022/11/29 07:19:35;;;;;;;41.75;12.73;;;8.60;99.90;;;;;;5075140;28;20028;-72
2022/11/29 07:22:24;;;;;;;42.42;13.90;;;8.70;99.90;;;;;;5096028;28;20036;-72
2022/11/29 07:25:11;;;;;;;42.47;13.63;;;8.70;99.90;;;;;;5098555;28;20071;-73
2022/11/29 07:27:40;;;;;;;50.63;13.65;;;8.60;99.90;;;;;;5109038;28;20055;-70
2022/11/29 07:30:17;;;;;;;43.08;12.98;;;8.60;99.90;;;;;;5074941;28;20115;-73
2022/11/29 07:33:12;;;;;;;41.45;12.05;;;8.70;99.90;;;;;;5073234;28;20036;-71
2022/11/29 07:35:43;;;;;;;38.58;11.85;;;8.70;99.90;;;;;;5073770;28;20024;-74
2022/11/29 07:38:42;;;;;;;54.05;14.60;;;8.80;99.90;;;;;;5092596;28;20392;-69
2022/11/29 07:41:18;;;;;;;48.28;13.15;;;8.70;99.90;;;;;;5073518;28;20021;-74
2022/11/29 07:43:47;;;;;;;45.22;12.10;;;8.70;99.90;;;;;;5072241;28;20029;-73
2022/11/29 07:46:13;;;;;;;40.05;12.05;;;8.70;99.90;;;;;;5090016;28;20099;-71
2022/11/29 07:48:38;;;;;;;43.88;12.75;;;8.70;99.90;;;;;;5091274;28;20127;-73
2022/11/29 07:51:04;;;;;;;42.00;12.88;;;8.80;99.90;;;;;;5091806;28;20070;-72
2022/11/29 07:53:30;;;;;;;44.08;11.63;;;8.80;99.90;;;;;;5106163;28;20451;-72
2022/11/29 07:55:57;;;;;;;39.10;11.70;;;8.70;99.90;;;;;;5091844;28;20016;-73
2022/11/29 07:58:22;;;;;;;41.63;13.23;;;8.80;99.90;;;;;;5064784;28;20024;-71
2022/11/29 08:00:48;;;;;;;41.00;13.00;;;8.80;99.90;;;;;;5064350;28;20114;-73
2022/11/29 08:03:14;;;;;;;40.38;11.75;;;8.80;99.90;;;;;;5091427;28;20082;-72
2022/11/29 08:05:43;;;;;;;43.78;12.93;;;8.80;99.90;;;;;;5106781;28;20396;-73
2022/11/29 08:08:09;;;;;;;38.72;12.10;;;8.80;99.90;;;;;;5106484;28;20059;-73
2022/11/29 08:10:34;;;;;;;40.90;12.13;;;8.80;99.90;;;;;;5072717;28;20105;-73
2022/11/29 08:13:00;;;;;;;35.70;12.88;;;8.80;99.90;;;;;;5091601;28;20510;-72
2022/11/29 08:15:26;;;;;;;40.15;13.43;;;8.70;99.90;;;;;;5090616;28;20388;-73
2022/11/29 08:17:52;;;;;;;38.75;11.48;;;8.70;99.90;;;;;;5105662;28;20048;-73
2022/11/29 08:20:18;;;;;;;43.05;14.43;;;8.70;99.90;;;;;;5091406;28;20051;-70
2022/11/29 08:22:43;;;;;;;35.95;12.13;;;8.80;99.90;;;;;;5090471;28;20061;-72
2022/11/29 08:25:10;;;;;;;41.75;12.90;;;8.70;99.90;;;;;;5091673;28;20094;-72
2022/11/29 08:27:37;;;;;;;51.33;12.45;;;8.70;99.90;;;;;;5106425;28;20063;-73
2022/11/29 08:30:04;;;;;;;41.83;11.52;;;8.70;99.90;;;;;;5091244;28;20307;-69
2022/11/29 08:32:30;;;;;;;38.33;12.35;;;8.70;99.90;;;;;;5102235;28;20097;-72
2022/11/29 08:34:55;;;;;;;36.38;11.82;;;8.70;99.90;;;;;;5088976;28;20069;-73
2022/11/29 08:37:21;;;;;;;37.83;11.38;;;8.70;99.90;;;;;;5073482;28;20380;-73
2022/11/29 08:39:46;;;;;;;41.65;10.40;;;8.70;99.90;;;;;;5091117;28;20092;-73
2022/11/29 08:42:12;;;;;;;39.80;10.85;;;8.70;99.90;;;;;;5091232;28;20024;-74
2022/11/29 08:44:37;;;;;;;38.58;11.27;;;8.70;99.90;;;;;;5106909;28;20028;-73
2022/11/29 08:50:02;;;;;;;38.28;11.02;;;8.70;99.90;;;;;;5090317;28;20400;-73
2022/11/29 08:55:15;;;;;;;40.70;12.27;;;8.70;99.90;;;;;;5081477;28;20031;-71
2022/11/29 08:57:41;;;;;;;36.33;10.45;;;8.70;99.90;;;;;;5076789;28;20041;-72
2022/11/29 09:00:08;;;;;;;33.63;9.88;;;8.70;99.90;;;;;;5106413;28;20016;-70
2022/11/29 09:02:34;;;;;;;35.67;10.88;;;8.70;99.90;;;;;;5072723;28;20020;-71
2022/11/29 09:05:00;;;;;;;29.67;9.85;;;8.70;99.90;;;;;;5099664;28;20035;-72
2022/11/29 09:07:25;;;;;;;32.35;10.45;;;8.70;99.90;;;;;;5096219;28;20036;-70
2022/11/29 09:09:51;;;;;;;37.20;10.65;;;8.70;99.90;;;;;;5110712;28;20019;-73
2022/11/29 09:12:16;;;;;;;27.95;10.23;;;8.70;99.90;;;;;;5102953;28;20035;-70
2022/11/29 09:14:42;;;;;;;28.27;9.73;;;8.70;99.90;;;;;;5101652;28;20084;-69
2022/11/29 09:17:08;;;;;;;30.80;9.73;;;8.70;99.90;;;;;;5084532;28;20710;-72
2022/11/29 09:19:33;;;;;;;30.13;9.82;;;8.70;99.90;;;;;;5103192;28;20111;-71
2022/11/29 09:21:59;;;;;;;34.08;10.77;;;8.80;99.90;;;;;;5103751;28;20032;-74
2022/11/29 09:24:24;;;;;;;29.02;10.75;;;8.80;99.90;;;;;;5074284;28;20597;-70
2022/11/29 09:26:50;;;;;;;28.70;9.95;;;8.90;99.90;;;;;;5093382;28;20430;-69
2022/11/29 09:29:16;;;;;;;35.40;11.07;;;8.90;99.90;;;;;;5093117;28;20035;-70
2022/11/29 09:31:44;;;;;;;32.95;9.73;;;8.90;99.90;;;;;;5095931;28;20028;-68
2022/11/29 09:34:18;;;;;;;31.90;10.52;;;8.90;99.90;;;;;;5105734;28;20035;-69
2022/11/29 09:36:44;;;;;;;37.70;12.30;;;8.80;99.90;;;;;;5110836;28;20561;-71
2022/11/29 09:39:11;;;;;;;28.20;10.00;;;8.80;99.90;;;;;;5111703;28;20063;-71
2022/11/29 09:41:55;;;;;;;27.30;9.75;;;8.90;99.90;;;;;;5104492;28;20032;-69
2022/11/29 09:44:35;;;;;;;32.03;9.80;;;8.90;99.90;;;;;;5078316;28;20831;-67
2022/11/29 09:47:38;;;;;;;36.67;11.18;;;8.80;99.90;;;;;;5077088;28;20016;-68
2022/11/29 09:50:39;;;;;;;27.70;9.15;;;8.90;99.90;;;;;;5099619;28;20131;-73
2022/11/29 09:53:35;;;;;;;26.60;9.55;;;8.90;99.90;;;;;;5063115;28;20055;-72
2022/11/29 09:56:25;;;;;;;21.92;8.48;;;8.90;99.90;;;;;;5059363;28;20543;-71
2022/11/29 09:58:59;;;;;;;26.60;8.00;;;8.90;99.90;;;;;;5066338;28;20042;-71
2022/11/29 10:01:36;;;;;;;24.63;8.63;;;9.00;99.90;;;;;;5073610;28;20027;-73
2022/11/29 10:04:05;;;;;;;26.60;8.93;;;9.00;99.90;;;;;;5073132;28;20356;-72
2022/11/29 10:06:39;;;;;;;26.52;8.05;;;9.10;99.90;;;;;;5071279;28;20077;-71
2022/11/29 10:09:21;;;;;;;22.45;7.70;;;9.10;99.90;;;;;;5064109;28;20020;-68
2022/11/29 10:11:53;;;;;;;26.10;8.43;;;9.20;99.90;;;;;;5110438;28;20038;-73
2022/11/29 10:14:20;;;;;;;;;;;9.10;99.90;;;;;;5079589;28;20477;-73
2022/11/29 10:17:14;;;;;;;25.73;8.85;;;9.20;99.90;;;;;;5092443;28;19994;-71
2022/11/29 10:19:43;;;;;;;23.02;8.73;;;9.20;99.90;;;;;;5092158;28;20130;-73
2022/11/29 10:22:44;;;;;;;23.05;7.88;;;9.20;99.90;;;;;;5091759;28;20043;-70
2022/11/29 10:25:19;;;;;;;24.33;8.50;;;9.30;99.90;;;;;;5074886;28;20055;-72
2022/11/29 10:27:44;;;;;;;25.80;8.55;;;9.30;99.90;;;;;;5092109;28;20491;-73
2022/11/29 10:30:14;;;;;;;27.20;8.90;;;9.40;99.90;;;;;;5108577;28;20024;-72
2022/11/29 10:32:44;;;;;;;31.58;8.70;;;9.40;99.90;;;;;;5106853;28;20035;-73
2022/11/29 10:35:19;;;;;;;22.52;8.52;;;9.50;99.90;;;;;;5106631;28;20135;-73
2022/11/29 10:37:46;;;;;;;24.58;8.02;;;9.50;99.90;;;;;;5112492;28;20027;-73
2022/11/29 10:40:19;;;;;;;23.70;8.80;;;9.50;99.90;;;;;;5112934;28;20019;-73
2022/11/29 10:42:48;;;;;;;28.17;9.85;;;9.60;99.90;;;;;;5091453;28;20031;-73
2022/11/29 10:45:49;;;;;;;24.25;7.88;;;9.70;99.90;;;;;;5101643;28;20479;-73
2022/11/29 10:48:20;;;;;;;23.40;8.73;;;9.60;99.90;;;;;;5106401;28;21327;-72
2022/11/29 10:50:48;;;;;;;25.73;9.20;;;9.70;99.90;;;;;;5094393;28;20042;-71
2022/11/29 10:53:16;;;;;;;28.65;8.77;;;9.60;99.90;;;;;;5112375;28;20567;-72
2022/11/29 10:55:44;;;;;;;23.77;8.43;;;9.70;99.90;;;;;;5111960;28;20027;-71
2022/11/29 10:58:24;;;;;;;31.00;8.93;;;9.60;99.90;;;;;;5093093;28;20028;-71
2022/11/29 11:01:05;;;;;;;27.25;8.27;;;9.70;99.90;;;;;;5107299;28;20016;-68
2022/11/29 11:03:36;;;;;;;26.58;8.70;;;9.80;99.90;;;;;;5097618;28;20106;-69
2022/11/29 11:06:04;;;;;;;26.98;9.43;;;9.90;99.90;;;;;;5108472;28;20028;-68
2022/11/29 11:08:31;;;;;;;25.02;9.68;;;10.00;99.90;;;;;;5110072;28;20027;-68
2022/11/29 11:10:58;;;;;;;24.10;9.52;;;10.00;99.90;;;;;;5112656;28;20027;-70
2022/11/29 11:13:27;;;;;;;24.25;8.82;;;10.00;99.90;;;;;;5112512;28;20119;-68
2022/11/29 11:16:06;;;;;;;23.45;9.70;;;9.90;99.90;;;;;;5113082;28;20023;-69
2022/11/29 11:18:32;;;;;;;26.38;9.50;;;9.80;99.90;;;;;;5093794;28;20444;-70
2022/11/29 11:21:02;;;;;;;28.58;10.93;;;9.80;99.90;;;;;;5113087;28;20051;-70
2022/11/29 11:23:34;;;;;;;27.75;10.13;;;9.90;99.90;;;;;;5094046;28;20118;-69
2022/11/29 11:26:06;;;;;;;27.55;10.18;;;10.00;99.90;;;;;;5112906;28;20055;-68
2022/11/29 11:28:42;;;;;;;22.73;9.85;;;9.90;99.90;;;;;;5112688;28;20026;-70
2022/11/29 11:31:10;;;;;;;23.52;9.10;;;9.90;99.90;;;;;;5112409;28;20050;-69
2022/11/29 11:33:40;;;;;;;22.00;9.02;;;10.00;99.90;;;;;;5112121;28;20027;-71
2022/11/29 11:36:18;;;;;;;25.52;10.10;;;10.10;99.90;;;;;;5112992;28;20471;-69
2022/11/29 11:39:11;;;;;;;26.00;10.13;;;10.10;99.90;;;;;;5111809;28;20494;-68
2022/11/29 11:44:40;;;;;;;24.95;10.35;;;10.20;99.90;;;;;;5111954;28;20042;-71
2022/11/29 11:47:12;;;;;;;29.58;11.10;;;10.20;99.90;;;;;;5112005;28;20461;-71
2022/11/29 11:49:46;;;;;;;29.08;10.60;;;10.20;99.90;;;;;;5093838;28;20506;-69
2022/11/29 11:52:40;;;;;;;30.30;11.13;;;10.20;99.90;;;;;;5111954;28;20034;-72
2022/11/29 11:55:20;;;;;;;27.92;10.60;;;10.00;99.90;;;;;;5112370;28;20484;-72
2022/11/29 11:58:12;;;;;;;27.83;10.40;;;10.00;99.90;;;;;;5093990;28;20028;-71
2022/11/29 12:00:54;;;;;;;23.92;10.10;;;10.10;99.90;;;;;;5102925;28;20046;-72
2022/11/29 12:03:54;;;;;;;26.30;10.30;;;10.10;99.90;;;;;;5112804;28;20024;-72
2022/11/29 12:06:45;;;;;;;28.83;11.30;;;10.10;99.90;;;;;;5111779;28;20106;-71
2022/11/29 12:09:31;;;;;;;25.42;9.73;;;10.20;99.90;;;;;;5112499;28;20425;-71
2022/11/29 12:12:21;;;;;;;25.88;9.82;;;10.30;99.90;;;;;;5093583;28;20114;-72
2022/11/29 12:14:57;;;;;;;27.67;10.38;;;10.30;99.90;;;;;;5111371;28;20039;-72
2022/11/29 12:17:47;;;;;;;28.38;11.57;;;10.40;99.90;;;;;;5111809;28;20048;-71
2022/11/29 12:20:41;;;;;;;34.25;11.52;;;10.40;99.90;;;;;;5111441;28;20081;-71
2022/11/29 12:23:15;;;;;;;23.85;10.30;;;10.40;99.90;;;;;;5093662;28;20034;-71
2022/11/29 12:26:01;;;;;;;26.27;10.35;;;10.50;99.90;;;;;;5111492;28;20023;-71
2022/11/29 12:28:34;;;;;;;25.98;10.25;;;10.60;99.90;;;;;;5092698;28;20051;-72
2022/11/29 12:31:11;;;;;;;29.08;11.93;;;10.70;99.90;;;;;;5093540;28;20054;-72
2022/11/29 12:33:55;;;;;;;23.23;9.40;;;10.60;99.90;;;;;;5109133;28;20088;-72
2022/11/29 12:36:34;;;;;;;26.33;9.85;;;10.60;99.90;;;;;;5093319;28;20114;-72
2022/11/29 12:39:17;;;;;;;28.15;10.38;;;10.50;99.90;;;;;;5092553;28;20396;-71
2022/11/29 12:42:00;;;;;;;29.80;11.27;;;10.50;99.90;;;;;;5093138;28;20032;-71
2022/11/29 12:44:29;;;;;;;26.23;9.57;;;10.40;99.90;;;;;;5093201;28;20125;-71
2022/11/29 12:47:06;;;;;;;22.75;10.30;;;10.40;99.90;;;;;;5111008;28;20047;-72
2022/11/29 12:49:42;;;;;;;25.77;10.30;;;10.30;99.90;;;;;;5093031;28;20065;-71
2022/11/29 12:52:07;;;;;;;26.40;9.23;;;10.30;99.90;;;;;;5111637;28;20038;-72
2022/11/29 12:54:46;;;;;;;21.38;9.75;;;10.30;99.90;;;;;;5110813;28;20028;-72
2022/11/29 12:57:24;;;;;;;24.42;9.63;;;10.30;99.90;;;;;;5094765;28;20483;-72
2022/11/29 13:00:10;;;;;;;30.35;12.25;;;10.30;99.90;;;;;;5097461;28;20059;-71
2022/11/29 13:02:38;;;;;;;24.00;10.77;;;10.40;99.90;;;;;;5096542;28;20383;-72
2022/11/29 13:05:18;;;;;;;26.15;10.68;;;10.40;99.90;;;;;;5115673;28;20024;-71
2022/11/29 13:08:02;;;;;;;23.70;9.27;;;10.40;99.90;;;;;;5114527;28;20084;-73
2022/11/29 13:10:38;;;;;;;30.77;11.18;;;10.40;99.90;;;;;;5115256;28;20032;-71
2022/11/29 13:13:16;;;;;;;31.55;11.65;;;10.30;99.90;;;;;;5115233;28;20051;-72
2022/11/29 13:15:53;;;;;;;29.80;10.95;;;10.30;99.90;;;;;;5096195;28;20024;-72
2022/11/29 13:18:32;;;;;;;22.80;9.82;;;10.30;99.90;;;;;;5096979;28;20456;-72
2022/11/29 13:21:10;;;;;;;22.17;9.77;;;10.40;99.90;;;;;;5115688;28;20055;-72
2022/11/29 13:23:48;;;;;;;23.27;10.88;;;10.40;99.90;;;;;;5115238;28;20023;-73
2022/11/29 13:26:15;;;;;;;25.83;9.18;;;10.50;99.90;;;;;;5097059;28;20015;-70
2022/11/29 13:28:42;;;;;;;21.10;10.30;;;10.50;99.90;;;;;;5114194;28;20038;-72
2022/11/29 13:31:19;;;;;;;25.75;9.63;;;10.30;99.90;;;;;;5115232;28;20034;-72
2022/11/29 13:33:59;;;;;;;23.50;8.38;;;10.20;99.90;;;;;;5115019;28;20030;-72
2022/11/29 13:36:44;;;;;;;22.35;8.82;;;10.00;99.90;;;;;;5097218;28;20109;-72
2022/11/29 13:39:15;;;;;;;20.63;8.00;;;9.80;99.90;;;;;;5097189;28;20023;-72